sensor_id;sensor_type;location;lat;lon;timestamp;pressure;altitude;pressure_sealevel;temperature;humidity
24558;BME280;12726;49.148;8.582;2023-07-24T00:00:11;99579.56;;;19.08;78.28
24558;BME280;12726;49.148;8.582;2023-07-24T00:02:56;99579.66;;;18.98;79.34
24558;BME280;12726;49.148;8.582;2023-07-24T00:05:42;99574.53;;;18.92;80.33
24558;BME280;12726;49.148;8.582;2023-07-24T00:08:31;99569.97;;;18.87;80.61
24558;BME280;12726;49.148;8.582;2023-07-24T00:11:16;99563.16;;;18.85;80.96
24558;BME280;12726;49.148;8.582;2023-07-24T00:14:03;99562.66;;;18.83;80.72
24558;BME280;12726;49.148;8.582;2023-07-24T00:16:50;99554.16;;;18.84;80.57
24558;BME280;12726;49.148;8.582;2023-07-24T00:19:37;99547.59;;;18.85;81.00
24558;BME280;12726;49.148;8.582;2023-07-24T00:22:28;99547.84;;;18.89;80.58
24558;BME280;12726;49.148;8.582;2023-07-24T00:25:19;99560.69;;;18.88;81.06
24558;BME280;12726;49.148;8.582;2023-07-24T00:28:05;99555.78;;;18.85;80.47
24558;BME280;12726;49.148;8.582;2023-07-24T00:30:50;99551.75;;;18.83;80.24
24558;BME280;12726;49.148;8.582;2023-07-24T00:33:41;99546.56;;;18.81;80.17
24558;BME280;12726;49.148;8.582;2023-07-24T00:36:28;99552.53;;;18.83;80.25
24558;BME280;12726;49.148;8.582;2023-07-24T00:39:15;99550.09;;;18.82;80.77
24558;BME280;12726;49.148;8.582;2023-07-24T00:42:01;99546.59;;;18.76;81.04
24558;BME280;12726;49.148;8.582;2023-07-24T00:44:46;99539.81;;;18.73;80.76
24558;BME280;12726;49.148;8.582;2023-07-24T00:47:35;99531.91;;;18.72;81.70
24558;BME280;12726;49.148;8.582;2023-07-24T00:50:24;99525.94;;;18.70;81.82
24558;BME280;12726;49.148;8.582;2023-07-24T00:53:10;99530.56;;;18.69;81.85
24558;BME280;12726;49.148;8.582;2023-07-24T00:55:58;99523.53;;;18.63;82.57
24558;BME280;12726;49.148;8.582;2023-07-24T00:58:43;99519.50;;;18.61;82.90
24558;BME280;12726;49.148;8.582;2023-07-24T01:01:28;99510.25;;;18.57;83.84
24558;BME280;12726;49.148;8.582;2023-07-24T01:04:15;99510.28;;;18.52;84.09
24558;BME280;12726;49.148;8.582;2023-07-24T01:07:06;99507.00;;;18.50;84.20
24558;BME280;12726;49.148;8.582;2023-07-24T01:09:53;99504.06;;;18.46;84.22
24558;BME280;12726;49.148;8.582;2023-07-24T01:12:42;99503.25;;;18.46;84.27
24558;BME280;12726;49.148;8.582;2023-07-24T01:15:32;99492.91;;;18.43;84.21
24558;BME280;12726;49.148;8.582;2023-07-24T01:18:20;99490.16;;;18.43;84.29
24558;BME280;12726;49.148;8.582;2023-07-24T01:21:11;99482.59;;;18.39;85.30
24558;BME280;12726;49.148;8.582;2023-07-24T01:24:23;99483.69;;;18.38;86.10
24558;BME280;12726;49.148;8.582;2023-07-24T01:27:10;99481.78;;;18.39;85.76
24558;BME280;12726;49.148;8.582;2023-07-24T01:29:55;99483.63;;;18.44;85.86
24558;BME280;12726;49.148;8.582;2023-07-24T01:32:44;99482.25;;;18.46;85.58
24558;BME280;12726;49.148;8.582;2023-07-24T01:35:33;99489.63;;;18.46;86.33
24558;BME280;12726;49.148;8.582;2023-07-24T01:38:21;99480.19;;;18.33;86.64
24558;BME280;12726;49.148;8.582;2023-07-24T01:41:13;99488.88;;;18.35;86.83
24558;BME280;12726;49.148;8.582;2023-07-24T01:44:02;99489.16;;;18.33;86.98
24558;BME280;12726;49.148;8.582;2023-07-24T01:46:47;99495.19;;;18.30;87.61
24558;BME280;12726;49.148;8.582;2023-07-24T01:49:33;99498.47;;;18.27;87.77
24558;BME280;12726;49.148;8.582;2023-07-24T01:52:30;99494.66;;;18.28;88.29
24558;BME280;12726;49.148;8.582;2023-07-24T01:55:15;99489.19;;;18.28;88.21
24558;BME280;12726;49.148;8.582;2023-07-24T01:58:03;99484.84;;;18.32;87.44
24558;BME280;12726;49.148;8.582;2023-07-24T02:01:00;99495.13;;;18.35;87.92
24558;BME280;12726;49.148;8.582;2023-07-24T02:03:45;99493.50;;;18.34;88.49
24558;BME280;12726;49.148;8.582;2023-07-24T02:06:30;99487.84;;;18.31;88.64
24558;BME280;12726;49.148;8.582;2023-07-24T02:09:20;99482.66;;;18.29;88.95
24558;BME280;12726;49.148;8.582;2023-07-24T02:12:08;99477.22;;;18.29;88.81
24558;BME280;12726;49.148;8.582;2023-07-24T02:14:55;99471.47;;;18.31;88.68
24558;BME280;12726;49.148;8.582;2023-07-24T02:17:42;99482.91;;;18.33;88.57
24558;BME280;12726;49.148;8.582;2023-07-24T02:20:28;99474.16;;;18.36;87.96
24558;BME280;12726;49.148;8.582;2023-07-24T02:23:13;99467.63;;;18.37;88.20
24558;BME280;12726;49.148;8.582;2023-07-24T02:26:01;99462.16;;;18.37;88.47
24558;BME280;12726;49.148;8.582;2023-07-24T02:28:48;99460.25;;;18.37;87.86
24558;BME280;12726;49.148;8.582;2023-07-24T02:31:33;99453.72;;;18.38;87.78
24558;BME280;12726;49.148;8.582;2023-07-24T02:34:20;99464.31;;;18.40;87.27
24558;BME280;12726;49.148;8.582;2023-07-24T02:37:08;99463.72;;;18.43;87.14
24558;BME280;12726;49.148;8.582;2023-07-24T02:39:53;99463.19;;;18.46;86.78
24558;BME280;12726;49.148;8.582;2023-07-24T02:42:45;99463.47;;;18.45;87.12
24558;BME280;12726;49.148;8.582;2023-07-24T02:45:34;99462.09;;;18.42;87.11
24558;BME280;12726;49.148;8.582;2023-07-24T02:48:19;99460.31;;;18.32;87.71
24558;BME280;12726;49.148;8.582;2023-07-24T02:51:08;99446.75;;;18.22;88.61
24558;BME280;12726;49.148;8.582;2023-07-24T02:54:00;99459.91;;;18.15;89.77
24558;BME280;12726;49.148;8.582;2023-07-24T02:56:49;99441.38;;;18.12;90.27
24558;BME280;12726;49.148;8.582;2023-07-24T02:59:35;99433.53;;;18.11;90.05
24558;BME280;12726;49.148;8.582;2023-07-24T03:02:28;99439.25;;;18.09;90.57
24558;BME280;12726;49.148;8.582;2023-07-24T03:05:14;99433.81;;;18.09;90.81
24558;BME280;12726;49.148;8.582;2023-07-24T03:08:03;99430.53;;;18.07;90.64
24558;BME280;12726;49.148;8.582;2023-07-24T03:10:49;99419.38;;;18.09;91.08
24558;BME280;12726;49.148;8.582;2023-07-24T03:13:39;99415.81;;;18.08;91.31
24558;BME280;12726;49.148;8.582;2023-07-24T03:16:28;99405.50;;;18.05;92.05
24558;BME280;12726;49.148;8.582;2023-07-24T03:19:13;99405.81;;;18.04;92.41
24558;BME280;12726;49.148;8.582;2023-07-24T03:22:01;99398.19;;;18.00;92.88
24558;BME280;12726;49.148;8.582;2023-07-24T03:24:49;99412.66;;;17.96;93.35
24558;BME280;12726;49.148;8.582;2023-07-24T03:27:37;99416.50;;;17.95;93.46
24558;BME280;12726;49.148;8.582;2023-07-24T03:30:26;99422.16;;;17.98;93.83
24558;BME280;12726;49.148;8.582;2023-07-24T03:33:11;99406.63;;;18.04;93.45
24558;BME280;12726;49.148;8.582;2023-07-24T03:36:00;99403.84;;;18.09;92.69
24558;BME280;12726;49.148;8.582;2023-07-24T03:38:45;99410.31;;;18.13;92.46
24558;BME280;12726;49.148;8.582;2023-07-24T03:41:32;99406.28;;;18.11;92.75
24558;BME280;12726;49.148;8.582;2023-07-24T03:44:17;99413.91;;;18.09;92.90
24558;BME280;12726;49.148;8.582;2023-07-24T03:47:04;99415.78;;;18.13;92.48
24558;BME280;12726;49.148;8.582;2023-07-24T03:49:51;99418.22;;;18.15;92.90
24558;BME280;12726;49.148;8.582;2023-07-24T03:52:37;99419.31;;;18.14;92.82
24558;BME280;12726;49.148;8.582;2023-07-24T03:55:24;99416.59;;;18.14;93.06
24558;BME280;12726;49.148;8.582;2023-07-24T03:58:13;99416.88;;;18.12;93.70
24558;BME280;12726;49.148;8.582;2023-07-24T04:00:59;99422.84;;;18.14;94.13
24558;BME280;12726;49.148;8.582;2023-07-24T04:03:57;99415.16;;;18.21;93.69
24558;BME280;12726;49.148;8.582;2023-07-24T04:06:42;99402.28;;;18.27;93.33
24558;BME280;12726;49.148;8.582;2023-07-24T04:09:28;99400.34;;;18.32;92.91
24558;BME280;12726;49.148;8.582;2023-07-24T04:12:13;99396.75;;;18.37;92.33
24558;BME280;12726;49.148;8.582;2023-07-24T04:15:01;99400.03;;;18.39;92.14
24558;BME280;12726;49.148;8.582;2023-07-24T04:17:48;99406.91;;;18.31;92.95
24558;BME280;12726;49.148;8.582;2023-07-24T04:20:37;99409.34;;;18.33;92.79
24558;BME280;12726;49.148;8.582;2023-07-24T04:23:22;99409.91;;;18.30;93.17
24558;BME280;12726;49.148;8.582;2023-07-24T04:26:07;99410.53;;;18.22;93.44
24558;BME280;12726;49.148;8.582;2023-07-24T04:28:53;99394.44;;;18.25;93.72
24558;BME280;12726;49.148;8.582;2023-07-24T04:31:39;99386.72;;;18.32;93.16
24558;BME280;12726;49.148;8.582;2023-07-24T04:34:25;99382.25;;;18.42;92.70
24558;BME280;12726;49.148;8.582;2023-07-24T04:37:13;99379.78;;;18.45;92.33
24558;BME280;12726;49.148;8.582;2023-07-24T04:39:58;99380.81;;;18.49;91.98
24558;BME280;12726;49.148;8.582;2023-07-24T04:42:46;99379.44;;;18.52;91.85
24558;BME280;12726;49.148;8.582;2023-07-24T04:45:32;99383.22;;;18.56;92.05
24558;BME280;12726;49.148;8.582;2023-07-24T04:48:23;99379.13;;;18.58;91.77
24558;BME280;12726;49.148;8.582;2023-07-24T04:51:09;99375.00;;;18.61;91.58
24558;BME280;12726;49.148;8.582;2023-07-24T04:53:56;99373.88;;;18.62;91.56
24558;BME280;12726;49.148;8.582;2023-07-24T04:56:45;99364.59;;;18.63;91.37
24558;BME280;12726;49.148;8.582;2023-07-24T04:59:30;99362.94;;;18.67;91.34
24558;BME280;12726;49.148;8.582;2023-07-24T05:02:19;99356.59;;;18.71;90.80
24558;BME280;12726;49.148;8.582;2023-07-24T05:05:10;99348.34;;;18.76;90.31
24558;BME280;12726;49.148;8.582;2023-07-24T05:07:55;99360.31;;;18.81;90.13
24558;BME280;12726;49.148;8.582;2023-07-24T05:10:41;99352.88;;;18.86;89.88
24558;BME280;12726;49.148;8.582;2023-07-24T05:13:28;99364.81;;;18.90;89.82
24558;BME280;12726;49.148;8.582;2023-07-24T05:16:14;99360.69;;;18.93;89.63
24558;BME280;12726;49.148;8.582;2023-07-24T05:19:02;99375.16;;;18.93;90.54
24558;BME280;12726;49.148;8.582;2023-07-24T05:21:53;99378.44;;;18.90;90.92
24558;BME280;12726;49.148;8.582;2023-07-24T05:24:46;99381.25;;;18.85;91.16
24558;BME280;12726;49.148;8.582;2023-07-24T05:27:37;99384.03;;;18.80;91.11
24558;BME280;12726;49.148;8.582;2023-07-24T05:30:23;99393.13;;;18.75;91.77
24558;BME280;12726;49.148;8.582;2023-07-24T05:33:08;99400.13;;;18.82;91.92
24558;BME280;12726;49.148;8.582;2023-07-24T05:35:58;99394.06;;;18.85;91.66
24558;BME280;12726;49.148;8.582;2023-07-24T05:38:48;99409.13;;;18.82;92.18
24558;BME280;12726;49.148;8.582;2023-07-24T05:41:33;99417.22;;;18.87;92.96
24558;BME280;12726;49.148;8.582;2023-07-24T05:44:21;99410.06;;;18.91;92.67
24558;BME280;12726;49.148;8.582;2023-07-24T05:47:11;99414.16;;;18.94;92.35
24558;BME280;12726;49.148;8.582;2023-07-24T05:50:01;99419.25;;;19.00;92.42
24558;BME280;12726;49.148;8.582;2023-07-24T05:52:47;99407.16;;;19.06;91.86
24558;BME280;12726;49.148;8.582;2023-07-24T05:55:34;99409.03;;;19.11;92.08
24558;BME280;12726;49.148;8.582;2023-07-24T05:58:19;99408.78;;;19.07;91.87
24558;BME280;12726;49.148;8.582;2023-07-24T06:01:08;99418.25;;;19.15;92.19
24558;BME280;12726;49.148;8.582;2023-07-24T06:03:54;99414.63;;;19.20;91.55
24558;BME280;12726;49.148;8.582;2023-07-24T06:06:40;99429.31;;;19.24;91.66
24558;BME280;12726;49.148;8.582;2023-07-24T06:09:27;99433.91;;;19.28;91.55
24558;BME280;12726;49.148;8.582;2023-07-24T06:12:18;99439.53;;;19.37;90.85
24558;BME280;12726;49.148;8.582;2023-07-24T06:15:08;99427.38;;;19.48;90.87
24558;BME280;12726;49.148;8.582;2023-07-24T06:17:53;99426.06;;;19.64;90.75
24558;BME280;12726;49.148;8.582;2023-07-24T06:20:40;99427.03;;;19.73;88.56
24558;BME280;12726;49.148;8.582;2023-07-24T06:23:25;99441.13;;;19.80;88.18
24558;BME280;12726;49.148;8.582;2023-07-24T06:26:18;99431.72;;;19.86;87.17
24558;BME280;12726;49.148;8.582;2023-07-24T06:29:10;99440.34;;;19.93;86.67
24558;BME280;12726;49.148;8.582;2023-07-24T06:31:56;99431.78;;;20.00;85.46
24558;BME280;12726;49.148;8.582;2023-07-24T06:34:41;99420.47;;;20.07;85.37
24558;BME280;12726;49.148;8.582;2023-07-24T06:37:27;99416.44;;;20.18;84.52
24558;BME280;12726;49.148;8.582;2023-07-24T06:40:12;99423.22;;;20.20;83.19
24558;BME280;12726;49.148;8.582;2023-07-24T06:43:02;99433.84;;;20.41;81.46
24558;BME280;12726;49.148;8.582;2023-07-24T06:45:51;99420.72;;;20.56;80.68
24558;BME280;12726;49.148;8.582;2023-07-24T06:48:39;99418.19;;;20.74;80.07
24558;BME280;12726;49.148;8.582;2023-07-24T06:51:26;99414.84;;;21.18;80.54
24558;BME280;12726;49.148;8.582;2023-07-24T06:54:11;99417.19;;;21.24;76.27
24558;BME280;12726;49.148;8.582;2023-07-24T06:57:03;99416.53;;;21.41;76.17
24558;BME280;12726;49.148;8.582;2023-07-24T06:59:48;99409.25;;;21.36;74.95
24558;BME280;12726;49.148;8.582;2023-07-24T07:02:35;99408.97;;;21.38;75.53
24558;BME280;12726;49.148;8.582;2023-07-24T07:05:20;99399.72;;;21.34;74.67
24558;BME280;12726;49.148;8.582;2023-07-24T07:08:09;99396.81;;;21.30;74.79
24558;BME280;12726;49.148;8.582;2023-07-24T07:10:55;99400.22;;;21.36;75.70
24558;BME280;12726;49.148;8.582;2023-07-24T07:13:46;99393.84;;;21.27;75.07
24558;BME280;12726;49.148;8.582;2023-07-24T07:16:31;99400.88;;;21.19;74.91
24558;BME280;12726;49.148;8.582;2023-07-24T07:19:18;99405.63;;;21.14;75.47
24558;BME280;12726;49.148;8.582;2023-07-24T07:22:04;99399.16;;;21.09;76.93
24558;BME280;12726;49.148;8.582;2023-07-24T07:24:52;99419.19;;;21.05;79.61
24558;BME280;12726;49.148;8.582;2023-07-24T07:27:37;99432.06;;;21.04;79.87
24558;BME280;12726;49.148;8.582;2023-07-24T07:30:27;99436.84;;;20.99;77.89
24558;BME280;12726;49.148;8.582;2023-07-24T07:33:12;99441.38;;;21.03;77.67
24558;BME280;12726;49.148;8.582;2023-07-24T07:36:02;99435.13;;;21.03;77.60
24558;BME280;12726;49.148;8.582;2023-07-24T07:38:47;99441.38;;;21.03;77.39
24558;BME280;12726;49.148;8.582;2023-07-24T07:41:43;99442.00;;;21.00;76.75
24558;BME280;12726;49.148;8.582;2023-07-24T07:44:31;99442.91;;;20.82;79.66
24558;BME280;12726;49.148;8.582;2023-07-24T07:47:19;99455.81;;;20.36;82.81
24558;BME280;12726;49.148;8.582;2023-07-24T07:50:10;99466.16;;;20.20;86.58
24558;BME280;12726;49.148;8.582;2023-07-24T07:52:59;99471.03;;;20.04;88.50
24558;BME280;12726;49.148;8.582;2023-07-24T07:55:46;99507.41;;;19.86;91.36
24558;BME280;12726;49.148;8.582;2023-07-24T07:58:32;99490.41;;;19.70;93.54
24558;BME280;12726;49.148;8.582;2023-07-24T08:01:21;99477.31;;;19.48;93.40
24558;BME280;12726;49.148;8.582;2023-07-24T08:04:06;99480.91;;;19.44;95.97
24558;BME280;12726;49.148;8.582;2023-07-24T08:06:51;99462.81;;;19.53;96.60
24558;BME280;12726;49.148;8.582;2023-07-24T08:09:39;99463.91;;;19.71;97.04
24558;BME280;12726;49.148;8.582;2023-07-24T08:12:27;99456.69;;;19.80;97.40
24558;BME280;12726;49.148;8.582;2023-07-24T08:15:14;99463.41;;;19.87;95.87
24558;BME280;12726;49.148;8.582;2023-07-24T08:18:02;99451.94;;;19.85;95.99
24558;BME280;12726;49.148;8.582;2023-07-24T08:20:49;99442.28;;;19.93;96.53
24558;BME280;12726;49.148;8.582;2023-07-24T08:23:34;99446.25;;;20.01;95.25
24558;BME280;12726;49.148;8.582;2023-07-24T08:26:26;99426.94;;;20.11;95.29
24558;BME280;12726;49.148;8.582;2023-07-24T08:29:17;99428.94;;;20.24;94.73
24558;BME280;12726;49.148;8.582;2023-07-24T08:32:05;99428.22;;;20.32;93.61
24558;BME280;12726;49.148;8.582;2023-07-24T08:34:52;99419.31;;;20.59;93.42
24558;BME280;12726;49.148;8.582;2023-07-24T08:37:37;99405.94;;;20.71;92.65
24558;BME280;12726;49.148;8.582;2023-07-24T08:40:27;99406.03;;;20.66;92.84
24558;BME280;12726;49.148;8.582;2023-07-24T08:43:15;99407.66;;;20.67;93.76
24558;BME280;12726;49.148;8.582;2023-07-24T08:46:07;99405.22;;;20.79;93.12
24558;BME280;12726;49.148;8.582;2023-07-24T08:48:55;99407.03;;;20.84;91.68
24558;BME280;12726;49.148;8.582;2023-07-24T08:51:41;99410.59;;;20.98;90.39
24558;BME280;12726;49.148;8.582;2023-07-24T08:54:29;99415.97;;;21.66;88.42
24558;BME280;12726;49.148;8.582;2023-07-24T08:57:15;99406.47;;;23.01;83.54
24558;BME280;12726;49.148;8.582;2023-07-24T09:00:02;99395.44;;;23.84;78.46
24558;BME280;12726;49.148;8.582;2023-07-24T09:02:49;99394.78;;;23.61;79.25
24558;BME280;12726;49.148;8.582;2023-07-24T09:05:43;99404.81;;;23.57;77.65
24558;BME280;12726;49.148;8.582;2023-07-24T09:08:29;99396.38;;;23.96;75.68
24558;BME280;12726;49.148;8.582;2023-07-24T09:11:18;99398.69;;;23.77;76.79
24558;BME280;12726;49.148;8.582;2023-07-24T09:14:08;99384.44;;;23.84;74.99
24558;BME280;12726;49.148;8.582;2023-07-24T09:17:12;99387.63;;;23.34;76.39
24558;BME280;12726;49.148;8.582;2023-07-24T09:19:57;99386.06;;;23.50;76.93
24558;BME280;12726;49.148;8.582;2023-07-24T09:22:48;99390.59;;;22.89;81.00
24558;BME280;12726;49.148;8.582;2023-07-24T09:25:35;99420.53;;;22.69;79.94
24558;BME280;12726;49.148;8.582;2023-07-24T09:28:21;99401.72;;;22.45;81.69
24558;BME280;12726;49.148;8.582;2023-07-24T09:31:06;99416.72;;;22.47;82.48
24558;BME280;12726;49.148;8.582;2023-07-24T09:33:53;99412.63;;;22.36;81.49
24558;BME280;12726;49.148;8.582;2023-07-24T09:36:40;99401.00;;;22.31;82.16
24558;BME280;12726;49.148;8.582;2023-07-24T09:39:33;99402.94;;;22.39;83.67
24558;BME280;12726;49.148;8.582;2023-07-24T09:42:30;99405.38;;;22.40;83.33
24558;BME280;12726;49.148;8.582;2023-07-24T09:45:15;99398.56;;;22.29;83.23
24558;BME280;12726;49.148;8.582;2023-07-24T09:48:01;99387.66;;;22.15;84.14
24558;BME280;12726;49.148;8.582;2023-07-24T09:50:48;99401.19;;;22.12;84.72
24558;BME280;12726;49.148;8.582;2023-07-24T09:53:38;99407.75;;;22.02;85.62
24558;BME280;12726;49.148;8.582;2023-07-24T09:56:25;99414.66;;;22.00;85.77
24558;BME280;12726;49.148;8.582;2023-07-24T09:59:12;99401.50;;;21.88;85.79
24558;BME280;12726;49.148;8.582;2023-07-24T10:01:57;99403.78;;;21.95;86.87
24558;BME280;12726;49.148;8.582;2023-07-24T10:04:47;99399.53;;;21.88;87.41
24558;BME280;12726;49.148;8.582;2023-07-24T10:07:44;99384.03;;;21.84;87.41
24558;BME280;12726;49.148;8.582;2023-07-24T10:10:31;99381.50;;;21.87;87.78
24558;BME280;12726;49.148;8.582;2023-07-24T10:13:17;99374.50;;;21.81;88.36
24558;BME280;12726;49.148;8.582;2023-07-24T10:16:04;99358.94;;;21.68;89.04
24558;BME280;12726;49.148;8.582;2023-07-24T10:22:32;99366.59;;;21.58;90.24
24558;BME280;12726;49.148;8.582;2023-07-24T10:25:29;99387.31;;;21.50;91.35
24558;BME280;12726;49.148;8.582;2023-07-24T10:28:15;99383.69;;;21.41;92.26
24558;BME280;12726;49.148;8.582;2023-07-24T10:31:02;99380.34;;;21.44;93.04
24558;BME280;12726;49.148;8.582;2023-07-24T10:33:52;99388.47;;;21.35;92.47
24558;BME280;12726;49.148;8.582;2023-07-24T10:36:37;99376.59;;;21.40;93.32
24558;BME280;12726;49.148;8.582;2023-07-24T10:39:24;99387.91;;;21.47;93.98
24558;BME280;12726;49.148;8.582;2023-07-24T10:42:11;99383.28;;;21.34;94.51
24558;BME280;12726;49.148;8.582;2023-07-24T10:45:04;99385.34;;;21.28;96.51
24558;BME280;12726;49.148;8.582;2023-07-24T10:47:50;99383.84;;;21.22;96.23
24558;BME280;12726;49.148;8.582;2023-07-24T10:50:39;99380.28;;;21.22;97.16
24558;BME280;12726;49.148;8.582;2023-07-24T10:53:24;99380.88;;;21.19;98.24
24558;BME280;12726;49.148;8.582;2023-07-24T10:56:10;99376.31;;;21.14;99.14
24558;BME280;12726;49.148;8.582;2023-07-24T10:59:02;99383.31;;;21.20;99.21
24558;BME280;12726;49.148;8.582;2023-07-24T11:01:47;99385.44;;;21.37;99.70
24558;BME280;12726;49.148;8.582;2023-07-24T11:04:33;99377.31;;;21.45;97.43
24558;BME280;12726;49.148;8.582;2023-07-24T11:07:18;99353.72;;;21.58;96.61
24558;BME280;12726;49.148;8.582;2023-07-24T11:10:14;99341.88;;;21.49;96.10
24558;BME280;12726;49.148;8.582;2023-07-24T11:12:59;99328.63;;;21.65;93.34
24558;BME280;12726;49.148;8.582;2023-07-24T11:15:47;99346.78;;;21.83;92.96
24558;BME280;12726;49.148;8.582;2023-07-24T11:18:44;99349.19;;;21.98;90.83
24558;BME280;12726;49.148;8.582;2023-07-24T11:21:30;99344.13;;;22.14;90.08
24558;BME280;12726;49.148;8.582;2023-07-24T11:24:17;99329.09;;;22.11;88.47
24558;BME280;12726;49.148;8.582;2023-07-24T11:27:08;99330.91;;;22.16;87.92
24558;BME280;12726;49.148;8.582;2023-07-24T11:29:54;99335.09;;;22.13;88.01
24558;BME280;12726;49.148;8.582;2023-07-24T11:32:41;99337.47;;;22.37;87.27
24558;BME280;12726;49.148;8.582;2023-07-24T11:35:27;99334.25;;;22.83;83.17
24558;BME280;12726;49.148;8.582;2023-07-24T11:38:13;99340.44;;;23.23;79.50
24558;BME280;12726;49.148;8.582;2023-07-24T11:40:58;99354.50;;;23.39;76.33
24558;BME280;12726;49.148;8.582;2023-07-24T11:43:47;99363.56;;;23.22;76.43
24558;BME280;12726;49.148;8.582;2023-07-24T11:46:33;99372.25;;;23.07;78.13
24558;BME280;12726;49.148;8.582;2023-07-24T11:49:19;99374.09;;;23.55;76.49
24558;BME280;12726;49.148;8.582;2023-07-24T11:52:06;99368.75;;;23.67;75.88
24558;BME280;12726;49.148;8.582;2023-07-24T11:54:58;99360.34;;;23.89;74.99
24558;BME280;12726;49.148;8.582;2023-07-24T11:57:55;99360.16;;;24.03;72.63
24558;BME280;12726;49.148;8.582;2023-07-24T12:00:40;99363.59;;;23.83;72.72
24558;BME280;12726;49.148;8.582;2023-07-24T12:03:26;99360.16;;;24.03;70.32
24558;BME280;12726;49.148;8.582;2023-07-24T12:06:17;99354.38;;;23.61;69.52
24558;BME280;12726;49.148;8.582;2023-07-24T12:09:04;99339.97;;;23.47;69.26
24558;BME280;12726;49.148;8.582;2023-07-24T12:11:50;99348.22;;;23.47;69.90
24558;BME280;12726;49.148;8.582;2023-07-24T12:14:35;99351.97;;;23.51;71.04
24558;BME280;12726;49.148;8.582;2023-07-24T12:17:21;99335.97;;;23.53;70.05
24558;BME280;12726;49.148;8.582;2023-07-24T12:20:08;99318.34;;;23.54;69.09
24558;BME280;12726;49.148;8.582;2023-07-24T12:22:56;99313.47;;;23.86;69.57
24558;BME280;12726;49.148;8.582;2023-07-24T12:25:41;99310.44;;;23.53;69.48
24558;BME280;12726;49.148;8.582;2023-07-24T12:28:26;99290.84;;;23.46;69.25
24558;BME280;12726;49.148;8.582;2023-07-24T12:31:12;99293.63;;;23.63;68.96
24558;BME280;12726;49.148;8.582;2023-07-24T12:33:57;99293.94;;;23.53;69.34
24558;BME280;12726;49.148;8.582;2023-07-24T12:36:43;99296.34;;;23.71;70.00
24558;BME280;12726;49.148;8.582;2023-07-24T12:39:30;99292.84;;;24.09;68.69
24558;BME280;12726;49.148;8.582;2023-07-24T12:42:16;99289.66;;;23.98;65.45
24558;BME280;12726;49.148;8.582;2023-07-24T12:45:01;99291.66;;;23.72;67.93
24558;BME280;12726;49.148;8.582;2023-07-24T12:47:47;99299.66;;;24.03;65.40
24558;BME280;12726;49.148;8.582;2023-07-24T12:50:33;99299.94;;;24.27;64.39
24558;BME280;12726;49.148;8.582;2023-07-24T12:53:18;99286.03;;;24.24;62.94
24558;BME280;12726;49.148;8.582;2023-07-24T12:56:05;99290.25;;;24.21;63.34
24558;BME280;12726;49.148;8.582;2023-07-24T12:58:50;99282.69;;;24.01;62.09
24558;BME280;12726;49.148;8.582;2023-07-24T13:01:36;99283.94;;;24.21;62.62
24558;BME280;12726;49.148;8.582;2023-07-24T13:04:22;99272.50;;;24.01;59.96
24558;BME280;12726;49.148;8.582;2023-07-24T13:07:07;99272.38;;;23.89;60.34
24558;BME280;12726;49.148;8.582;2023-07-24T13:09:53;99261.31;;;24.15;59.71
24558;BME280;12726;49.148;8.582;2023-07-24T13:12:40;99267.84;;;24.40;59.53
24558;BME280;12726;49.148;8.582;2023-07-24T13:15:25;99260.88;;;24.42;57.92
24558;BME280;12726;49.148;8.582;2023-07-24T13:18:10;99257.81;;;24.44;57.43
24558;BME280;12726;49.148;8.582;2023-07-24T13:20:57;99253.50;;;24.55;58.85
24558;BME280;12726;49.148;8.582;2023-07-24T13:23:43;99249.41;;;25.11;57.18
24558;BME280;12726;49.148;8.582;2023-07-24T13:26:28;99240.69;;;25.09;57.29
24558;BME280;12726;49.148;8.582;2023-07-24T13:29:15;99221.38;;;24.88;55.94
24558;BME280;12726;49.148;8.582;2023-07-24T13:32:00;99220.16;;;25.40;56.41
24558;BME280;12726;49.148;8.582;2023-07-24T13:34:46;99208.34;;;24.56;57.78
24558;BME280;12726;49.148;8.582;2023-07-24T13:37:32;99210.09;;;24.81;59.05
24558;BME280;12726;49.148;8.582;2023-07-24T13:40:17;99213.31;;;25.25;55.94
24558;BME280;12726;49.148;8.582;2023-07-24T13:43:02;99199.09;;;24.61;57.13
24558;BME280;12726;49.148;8.582;2023-07-24T13:45:50;99186.81;;;24.79;57.16
24558;BME280;12726;49.148;8.582;2023-07-24T13:48:35;99180.31;;;24.63;56.27
24558;BME280;12726;49.148;8.582;2023-07-24T13:51:20;99182.31;;;24.95;55.96
24558;BME280;12726;49.148;8.582;2023-07-24T13:54:06;99159.47;;;24.74;55.72
24558;BME280;12726;49.148;8.582;2023-07-24T13:56:51;99171.31;;;24.95;56.03
24558;BME280;12726;49.148;8.582;2023-07-24T13:59:37;99178.56;;;25.00;54.63
24558;BME280;12726;49.148;8.582;2023-07-24T14:02:24;99176.75;;;24.83;54.46
24558;BME280;12726;49.148;8.582;2023-07-24T14:05:10;99173.25;;;24.94;54.96
24558;BME280;12726;49.148;8.582;2023-07-24T14:07:55;99163.75;;;24.92;54.52
24558;BME280;12726;49.148;8.582;2023-07-24T14:10:41;99175.38;;;25.10;53.78
24558;BME280;12726;49.148;8.582;2023-07-24T14:13:26;99165.41;;;25.05;54.88
24558;BME280;12726;49.148;8.582;2023-07-24T14:16:12;99152.97;;;25.32;53.60
24558;BME280;12726;49.148;8.582;2023-07-24T14:18:58;99146.34;;;24.79;54.45
24558;BME280;12726;49.148;8.582;2023-07-24T14:21:44;99136.59;;;24.82;54.98
24558;BME280;12726;49.148;8.582;2023-07-24T14:24:29;99122.44;;;24.50;55.34
24558;BME280;12726;49.148;8.582;2023-07-24T14:27:14;99142.56;;;25.05;55.06
24558;BME280;12726;49.148;8.582;2023-07-24T14:30:00;99136.41;;;25.20;54.81
24558;BME280;12726;49.148;8.582;2023-07-24T14:32:45;99154.47;;;24.96;54.00
24558;BME280;12726;49.148;8.582;2023-07-24T14:35:35;99163.03;;;24.53;55.53
24558;BME280;12726;49.148;8.582;2023-07-24T14:38:20;99158.41;;;24.66;54.87
24558;BME280;12726;49.148;8.582;2023-07-24T14:41:05;99155.75;;;24.57;54.86
24558;BME280;12726;49.148;8.582;2023-07-24T14:43:51;99168.81;;;24.61;55.53
24558;BME280;12726;49.148;8.582;2023-07-24T14:46:39;99161.91;;;24.54;55.70
24558;BME280;12726;49.148;8.582;2023-07-24T14:49:26;99178.22;;;24.30;64.08